Time;durP1;ratioP1;P1;durP2;ratioP2;P2;SDS_P1;SDS_P2;PMS_P1;PMS_P2;Temp;Humidity;BMP_temperature;BMP_pressure;BME280_temperature;BME280_humidity;BME280_pressure;Samples;Min_cycle;Max_cycle;Signal;HPM_P1;HPM_P2
2023/04/18 00:02:24;;;;;;;0.73;0.73;;;;;;;14.92;59.76;99348.97;4429706;32;34715;-84
2023/04/18 00:04:54;;;;;;;0.60;0.60;;;;;;;14.30;61.98;99352.84;4442117;32;32846;-85
2023/04/18 00:07:24;;;;;;;0.43;0.43;;;;;;;14.79;60.47;99355.53;4440820;32;32837;-84
2023/04/18 00:09:53;;;;;;;0.50;0.50;;;;;;;14.29;62.30;99352.91;4432108;32;33386;-83
2023/04/18 00:12:22;;;;;;;0.50;0.50;;;;;;;13.99;63.69;99354.75;4431144;32;33632;-84
2023/04/18 00:14:51;;;;;;;0.50;0.50;;;;;;;14.63;61.10;99351.78;4434859;32;33505;-83
2023/04/18 00:17:21;;;;;;;0.60;0.60;;;;;;;14.47;61.89;99352.28;4434783;32;34245;-85
2023/04/18 00:19:51;;;;;;;0.70;0.70;;;;;;;14.75;61.41;99351.34;4443333;32;32867;-84
2023/04/18 00:22:21;;;;;;;0.50;0.50;;;;;;;14.65;61.92;99361.25;4438744;32;33668;-84
2023/04/18 00:24:52;;;;;;;0.50;0.50;;;;;;;14.36;62.81;99353.56;4431690;32;33171;-83
2023/04/18 00:27:21;;;;;;;0.80;0.73;;;;;;;14.41;62.16;99357.69;4446265;32;32564;-84
2023/04/18 00:29:51;;;;;;;0.70;0.70;;;;;;;14.93;60.44;99350.69;4436628;32;33436;-84
2023/04/18 00:32:20;;;;;;;0.52;0.52;;;;;;;14.60;60.95;99354.50;4434159;32;33855;-84
2023/04/18 00:34:49;;;;;;;0.68;0.68;;;;;;;14.48;61.14;99353.13;4444015;32;33399;-84
2023/04/18 00:37:19;;;;;;;0.65;0.65;;;;;;;14.18;61.94;99357.59;4448367;32;33825;-83
2023/04/18 00:39:52;;;;;;;0.50;0.50;;;;;;;14.65;60.24;99355.19;4437471;32;33101;-85
2023/04/18 00:42:21;;;;;;;1.15;1.05;;;;;;;14.26;61.21;99347.78;4431698;32;33869;-83
2023/04/18 00:44:54;;;;;;;0.60;0.60;;;;;;;14.82;59.58;99347.59;4429471;32;34433;-85
2023/04/18 00:47:23;;;;;;;2.20;1.00;;;;;;;13.96;61.94;99358.31;4442975;32;32870;-83
2023/04/18 00:49:52;;;;;;;0.60;0.60;;;;;;;14.11;61.50;99354.38;4445340;32;34516;-83
2023/04/18 00:52:21;;;;;;;0.50;0.50;;;;;;;14.42;60.60;99353.31;4434302;32;33642;-84
2023/04/18 00:54:51;;;;;;;0.60;0.55;;;;;;;14.30;60.46;99347.63;4429192;32;33638;-84
2023/04/18 00:57:20;;;;;;;0.65;0.65;;;;;;;14.39;60.26;99349.06;4432322;32;33893;-85
2023/04/18 00:59:51;;;;;;;0.60;0.60;;;;;;;14.50;59.80;99344.34;4448171;32;32510;-83
2023/04/18 01:02:20;;;;;;;0.50;0.50;;;;;;;14.26;60.76;99343.41;4437089;32;34749;-83
2023/04/18 01:04:51;;;;;;;0.60;0.60;;;;;;;14.06;61.43;99346.69;4441294;32;33821;-84
2023/04/18 01:07:19;;;;;;;0.52;0.52;;;;;;;14.40;60.13;99345.56;4429667;32;34233;-83
2023/04/18 01:09:48;;;;;;;0.82;0.80;;;;;;;14.30;60.37;99345.03;4429340;32;34595;-84
2023/04/18 01:12:18;;;;;;;0.77;0.70;;;;;;;14.36;60.18;99336.13;4445332;32;34094;-83
2023/04/18 01:14:47;;;;;;;0.80;0.80;;;;;;;13.51;62.78;99345.84;4444279;32;34181;-83
2023/04/18 01:17:16;;;;;;;0.95;0.60;;;;;;;14.09;61.04;99353.56;4439508;32;33041;-84
2023/04/18 01:19:45;;;;;;;0.70;0.70;;;;;;;13.82;61.92;99347.47;4442315;32;34621;-85
2023/04/18 01:22:14;;;;;;;0.60;0.60;;;;;;;14.03;61.55;99349.38;4443227;32;34743;-84
2023/04/18 01:24:44;;;;;;;0.55;0.55;;;;;;;13.49;62.96;99355.47;4433445;32;34612;-83
2023/04/18 01:27:13;;;;;;;1.17;0.97;;;;;;;13.46;62.99;99360.78;4442830;32;33574;-83
2023/04/18 01:29:42;;;;;;;0.70;0.70;;;;;;;13.87;61.77;99356.03;4428697;32;33416;-84
2023/04/18 01:32:11;;;;;;;0.77;0.62;;;;;;;14.17;60.72;99350.69;4444673;32;34775;-84
2023/04/18 01:34:40;;;;;;;0.57;0.57;;;;;;;13.80;61.50;99360.56;4449808;32;33632;-84
2023/04/18 01:37:09;;;;;;;0.93;0.73;;;;;;;13.95;61.31;99361.84;4432599;32;32991;-83
2023/04/18 01:39:38;;;;;;;0.60;0.60;;;;;;;14.03;61.20;99354.59;4427513;32;33871;-84
2023/04/18 01:42:08;;;;;;;2.78;2.58;;;;;;;13.70;62.27;99358.28;4432948;32;33557;-83
2023/04/18 01:44:38;;;;;;;0.70;0.70;;;;;;;13.88;62.28;99357.72;4438119;32;33949;-84
2023/04/18 01:47:06;;;;;;;0.60;0.60;;;;;;;13.69;63.69;99364.41;4430538;32;32873;-84
2023/04/18 01:49:35;;;;;;;0.50;0.50;;;;;;;13.71;63.89;99365.22;4437584;32;33593;-84
2023/04/18 01:52:04;;;;;;;1.42;0.60;;;;;;;13.39;66.33;99359.25;4431120;32;35302;-84
2023/04/18 01:54:33;;;;;;;0.65;0.65;;;;;;;13.78;66.03;99366.75;4435811;32;33827;-83
2023/04/18 01:57:02;;;;;;;1.50;1.40;;;;;;;13.25;67.78;99364.81;4433674;32;33346;-84
2023/04/18 01:59:32;;;;;;;0.70;0.70;;;;;;;13.88;66.47;99365.53;4436489;32;33391;-83
2023/04/18 02:02:02;;;;;;;0.95;0.93;;;;;;;14.02;66.48;99365.09;4433571;32;33461;-84
2023/04/18 02:04:31;;;;;;;0.90;0.90;;;;;;;13.87;66.65;99359.47;4433272;32;34359;-85
2023/04/18 02:07:00;;;;;;;1.30;0.77;;;;;;;14.33;64.77;99367.56;4445296;32;34317;-86
2023/04/18 02:09:29;;;;;;;0.50;0.50;;;;;;;14.56;64.21;99368.56;4430087;32;33670;-85
2023/04/18 02:12:00;;;;;;;1.10;0.90;;;;;;;14.49;64.23;99368.72;4431028;32;33619;-84
2023/04/18 02:14:35;;;;;;;0.77;0.77;;;;;;;14.11;65.14;99374.38;4430075;32;34156;-85
2023/04/18 02:17:04;;;;;;;0.50;0.50;;;;;;;14.22;64.94;99370.50;4448339;32;33889;-86
2023/04/18 02:19:33;;;;;;;0.50;0.50;;;;;;;14.86;61.61;99367.47;4441076;32;33876;-85
2023/04/18 02:22:02;;;;;;;0.90;0.77;;;;;;;14.89;61.14;99371.75;4444628;32;34331;-84
2023/04/18 02:24:31;;;;;;;1.17;1.02;;;;;;;14.69;62.00;99368.09;4417274;32;33521;-86
2023/04/18 02:27:00;;;;;;;0.65;0.60;;;;;;;14.45;62.81;99369.75;4413830;32;33630;-85
2023/04/18 02:29:30;;;;;;;0.50;0.50;;;;;;;14.49;62.45;99373.94;4421638;32;33063;-84
2023/04/18 02:32:00;;;;;;;0.60;0.60;;;;;;;14.73;60.76;99363.59;4432871;32;33516;-84
2023/04/18 02:34:29;;;;;;;0.62;0.60;;;;;;;14.65;61.38;99366.47;4431475;32;34158;-85
2023/04/18 02:36:57;;;;;;;0.70;0.70;;;;;;;14.61;61.96;99364.88;4443212;32;33158;-86
2023/04/18 02:39:26;;;;;;;0.95;0.88;;;;;;;14.80;61.46;99375.53;4434199;32;33356;-84
2023/04/18 02:41:55;;;;;;;0.70;0.70;;;;;;;14.54;61.70;99370.34;4420701;32;33844;-85
2023/04/18 02:44:25;;;;;;;1.12;1.02;;;;;;;14.81;60.93;99366.78;4416963;32;33575;-83
2023/04/18 02:46:55;;;;;;;0.65;0.65;;;;;;;14.80;60.44;99372.91;4418954;32;32866;-85
2023/04/18 02:49:25;;;;;;;0.52;0.52;;;;;;;14.69;60.65;99367.19;4446022;32;33990;-84
2023/04/18 02:51:55;;;;;;;1.17;1.17;;;;;;;14.59;61.95;99377.13;4450873;32;33212;-86
2023/04/18 02:54:24;;;;;;;0.55;0.55;;;;;;;14.67;61.02;99377.72;4429812;32;33967;-85
2023/04/18 02:56:54;;;;;;;0.65;0.65;;;;;;;14.70;61.50;99379.38;4430055;32;34346;-84
2023/04/18 02:59:23;;;;;;;0.70;0.70;;;;;;;14.57;62.06;99383.28;4431310;32;33756;-84
2023/04/18 03:01:55;;;;;;;0.60;0.60;;;;;;;14.29;63.07;99392.03;4435463;32;33073;-84
2023/04/18 03:04:26;;;;;;;0.60;0.60;;;;;;;14.44;62.96;99390.66;4430707;32;34555;-83
2023/04/18 03:06:56;;;;;;;0.93;0.70;;;;;;;14.63;62.36;99388.31;4430855;32;32134;-85
2023/04/18 03:09:26;;;;;;;1.40;0.80;;;;;;;14.48;62.89;99389.66;4430791;32;32676;-84
2023/04/18 03:11:55;;;;;;;0.50;0.50;;;;;;;14.50;63.22;99393.09;4439191;32;33730;-85
2023/04/18 03:14:24;;;;;;;1.40;1.30;;;;;;;13.83;66.32;99399.56;4451696;32;34242;-85
2023/04/18 03:16:54;;;;;;;1.00;0.90;;;;;;;13.21;68.25;99392.69;4446010;32;33335;-84
2023/04/18 03:19:23;;;;;;;0.73;0.73;;;;;;;13.60;67.57;99391.59;4445943;32;33962;-85
2023/04/18 03:21:54;;;;;;;1.05;0.60;;;;;;;13.82;67.18;99391.78;4445205;32;33365;-85
2023/04/18 03:24:23;;;;;;;0.83;0.70;;;;;;;13.98;66.44;99398.25;4451482;32;32945;-84
2023/04/18 03:26:52;;;;;;;0.60;0.60;;;;;;;14.22;65.63;99396.59;4439881;32;33060;-86
2023/04/18 03:29:21;;;;;;;0.50;0.50;;;;;;;14.46;65.10;99397.53;4442020;32;33561;-85
2023/04/18 03:31:52;;;;;;;1.07;0.80;;;;;;;14.13;66.39;99398.66;4445136;32;33947;-84
2023/04/18 03:34:20;;;;;;;0.60;0.60;;;;;;;13.99;67.26;99399.09;4451789;32;34235;-84
2023/04/18 03:36:50;;;;;;;1.02;0.68;;;;;;;14.22;66.25;99403.56;4446452;32;34071;-86
2023/04/18 03:39:21;;;;;;;1.73;1.10;;;;;;;14.20;66.64;99402.78;4436520;32;34565;-86
2023/04/18 03:41:51;;;;;;;0.73;0.60;;;;;;;14.63;64.83;99396.16;4432923;32;34590;-84
2023/04/18 03:44:20;;;;;;;0.50;0.50;;;;;;;14.47;65.50;99398.37;4429504;32;33593;-84
2023/04/18 03:46:49;;;;;;;1.10;0.80;;;;;;;14.58;65.22;99396.31;4444337;32;34297;-86
2023/04/18 03:49:21;;;;;;;0.60;0.60;;;;;;;14.79;64.47;99397.31;4439219;32;34422;-83
2023/04/18 03:51:50;;;;;;;0.60;0.60;;;;;;;14.86;64.70;99392.72;4438031;32;33308;-85
2023/04/18 03:54:21;;;;;;;0.60;0.60;;;;;;;14.72;64.78;99391.47;4430500;32;34689;-84
2023/04/18 03:56:50;;;;;;;2.53;1.10;;;;;;;14.52;65.12;99396.47;4443648;32;32875;-84
2023/04/18 03:59:19;;;;;;;0.50;0.50;;;;;;;14.70;64.91;99397.66;4432775;32;33635;-85
2023/04/18 04:01:48;;;;;;;1.00;0.75;;;;;;;14.69;65.34;99396.81;4438471;32;33379;-86
2023/04/18 04:04:18;;;;;;;1.15;0.77;;;;;;;14.50;65.16;99406.13;4432628;32;35631;-83
2023/04/18 04:06:47;;;;;;;0.60;0.60;;;;;;;14.99;62.96;99404.44;4436999;32;32957;-84
2023/04/18 04:09:16;;;;;;;1.33;0.90;;;;;;;14.48;63.99;99403.56;4446211;32;33770;-84
2023/04/18 04:11:47;;;;;;;0.60;0.60;;;;;;;14.15;64.19;99404.69;4433019;32;34806;-84
2023/04/18 04:14:16;;;;;;;0.73;0.73;;;;;;;13.83;66.25;99407.41;4441396;32;33687;-86
2023/04/18 04:16:45;;;;;;;1.00;0.70;;;;;;;13.96;66.08;99414.84;4428688;32;32948;-86
2023/04/18 04:19:15;;;;;;;0.70;0.70;;;;;;;14.06;64.56;99409.31;4447762;32;33095;-85
2023/04/18 04:21:44;;;;;;;0.90;0.90;;;;;;;14.06;65.04;99406.69;4435198;32;33721;-83
2023/04/18 04:24:13;;;;;;;0.50;0.50;;;;;;;14.23;64.45;99411.38;4428413;32;33146;-84
2023/04/18 04:26:45;;;;;;;;;;;;;;;14.22;64.32;99414.00;4433911;32;32622;-83
2023/04/18 04:29:16;;;;;;;0.60;0.60;;;;;;;13.98;64.77;99416.50;4435079;32;33689;-86
2023/04/18 04:31:45;;;;;;;0.60;0.60;;;;;;;13.94;64.42;99417.50;4441481;32;33451;-84
2023/04/18 04:34:15;;;;;;;0.60;0.60;;;;;;;14.23;62.10;99421.81;4443249;32;33608;-84
2023/04/18 04:36:49;;;;;;;0.62;0.62;;;;;;;13.39;65.80;99414.81;4440051;32;33570;-83
2023/04/18 04:39:18;;;;;;;1.35;1.25;;;;;;;13.62;65.20;99424.53;4425729;32;35450;-86
2023/04/18 04:41:48;;;;;;;1.25;0.93;;;;;;;13.53;64.73;99424.84;4427250;32;34107;-83
2023/04/18 04:44:20;;;;;;;0.70;0.70;;;;;;;14.03;63.71;99427.63;4442951;32;33739;-85
2023/04/18 04:46:49;;;;;;;;;;;;;;;13.84;64.16;99434.31;4436401;32;32453;-84
2023/04/18 04:49:18;;;;;;;0.80;0.68;;;;;;;13.92;63.60;99424.53;4435373;32;33811;-82
2023/04/18 04:51:48;;;;;;;0.60;0.60;;;;;;;14.13;63.48;99433.41;4440783;32;33641;-84
2023/04/18 04:54:17;;;;;;;0.68;0.65;;;;;;;13.82;64.10;99436.13;4440171;32;34412;-83
2023/04/18 04:56:46;;;;;;;0.82;0.82;;;;;;;13.88;63.28;99434.19;4436440;32;32985;-83
2023/04/18 04:59:15;;;;;;;0.50;0.50;;;;;;;13.84;63.41;99436.94;4435168;32;34431;-83
2023/04/18 05:01:48;;;;;;;0.70;0.70;;;;;;;13.60;64.56;99436.78;4435415;32;34408;-85
2023/04/18 05:04:46;;;;;;;0.95;0.85;;;;;;;13.93;63.04;99436.66;4429876;32;35121;-83
2023/04/18 05:07:14;;;;;;;3.28;1.77;;;;;;;13.92;62.99;99434.97;4433965;32;33135;-83
2023/04/18 05:09:43;;;;;;;0.60;0.60;;;;;;;14.17;62.88;99444.63;4429296;32;34268;-85
2023/04/18 05:12:12;;;;;;;1.08;0.80;;;;;;;13.53;65.44;99439.59;4438400;32;33904;-85
2023/04/18 05:14:41;;;;;;;0.80;0.80;;;;;;;13.36;66.17;99450.50;4455498;32;33331;-84
2023/04/18 05:17:11;;;;;;;0.60;0.60;;;;;;;13.80;65.37;99450.97;4445191;32;33192;-85
2023/04/18 05:19:42;;;;;;;0.70;0.70;;;;;;;13.85;65.39;99452.53;4445203;32;34139;-83
2023/04/18 05:22:11;;;;;;;0.70;0.70;;;;;;;13.36;66.66;99453.13;4441166;32;34098;-83
2023/04/18 05:24:40;;;;;;;0.60;0.60;;;;;;;13.37;66.74;99452.22;4437854;32;34006;-84
2023/04/18 05:27:08;;;;;;;0.77;0.77;;;;;;;13.70;65.92;99457.34;4437464;32;33361;-84
2023/04/18 05:29:40;;;;;;;0.93;0.85;;;;;;;13.99;64.82;99449.53;4436707;32;33941;-83
2023/04/18 05:32:10;;;;;;;1.08;0.95;;;;;;;14.26;63.91;99458.22;4444275;32;34127;-85
2023/04/18 05:34:42;;;;;;;0.60;0.60;;;;;;;14.43;63.42;99459.44;4447097;32;34081;-84
2023/04/18 05:37:10;;;;;;;0.60;0.60;;;;;;;14.43;63.79;99460.28;4446316;32;33866;-85
2023/04/18 05:39:39;;;;;;;1.45;0.80;;;;;;;14.45;63.20;99460.25;4450938;32;33493;-84
2023/04/18 05:42:08;;;;;;;0.50;0.50;;;;;;;14.51;63.03;99462.63;4443547;32;33569;-83
2023/04/18 05:44:37;;;;;;;0.60;0.60;;;;;;;14.57;63.50;99467.72;4445125;32;34478;-84
2023/04/18 05:47:06;;;;;;;0.68;0.68;;;;;;;14.67;64.12;99471.72;4445366;32;33129;-83
2023/04/18 05:49:35;;;;;;;0.50;0.50;;;;;;;14.80;64.84;99469.53;4438075;32;33544;-86
2023/04/18 05:52:05;;;;;;;0.70;0.70;;;;;;;14.85;64.41;99464.16;4442600;32;34321;-84
2023/04/18 05:54:34;;;;;;;0.68;0.68;;;;;;;14.56;65.38;99462.53;4436007;32;33406;-84
2023/04/18 05:57:03;;;;;;;0.90;0.75;;;;;;;14.65;65.19;99463.06;4438175;32;33014;-84
2023/04/18 05:59:32;;;;;;;0.75;0.75;;;;;;;14.48;65.77;99466.22;4439579;32;34327;-87
2023/04/18 06:02:01;;;;;;;0.70;0.70;;;;;;;14.72;62.76;99463.72;4451055;32;33852;-85
2023/04/18 06:04:30;;;;;;;0.82;0.82;;;;;;;14.82;63.81;99466.87;4446172;32;34601;-84
2023/04/18 06:06:59;;;;;;;0.88;0.88;;;;;;;14.77;64.50;99468.78;4443927;32;33725;-83
2023/04/18 06:09:29;;;;;;;0.77;0.70;;;;;;;14.83;65.81;99473.78;4445583;32;33827;-85
2023/04/18 06:11:58;;;;;;;1.02;0.77;;;;;;;15.09;64.49;99478.13;4449244;32;33259;-83
2023/04/18 06:14:27;;;;;;;0.55;0.55;;;;;;;15.30;65.14;99473.91;4449830;32;33428;-83
2023/04/18 06:16:56;;;;;;;0.75;0.65;;;;;;;15.29;65.23;99474.78;4444274;32;33061;-86
2023/04/18 06:19:25;;;;;;;1.12;0.85;;;;;;;15.19;64.67;99483.88;4444760;32;33479;-84
2023/04/18 06:21:54;;;;;;;0.70;0.70;;;;;;;14.71;66.90;99488.13;4446004;32;33992;-83
2023/04/18 06:24:22;;;;;;;0.50;0.50;;;;;;;14.96;65.57;99484.69;4449761;32;34084;-83
2023/04/18 06:26:54;;;;;;;0.90;0.85;;;;;;;14.63;67.06;99492.75;4446318;32;33007;-83
2023/04/18 06:29:23;;;;;;;0.68;0.68;;;;;;;15.20;63.09;99485.56;4432298;32;33918;-85
2023/04/18 06:31:52;;;;;;;0.70;0.70;;;;;;;15.03;62.62;99484.44;4430764;32;33388;-83
2023/04/18 06:34:21;;;;;;;0.57;0.57;;;;;;;14.65;61.31;99483.97;4436366;32;33473;-84
2023/04/18 06:36:49;;;;;;;0.80;0.80;;;;;;;15.03;59.10;99489.66;4430849;32;34022;-83
2023/04/18 06:39:18;;;;;;;0.40;0.40;;;;;;;15.17;58.94;99486.53;4440003;32;33683;-82
2023/04/18 06:41:48;;;;;;;0.98;0.65;;;;;;;15.04;60.80;99493.97;4429592;32;33747;-85
2023/04/18 06:44:21;;;;;;;1.00;0.65;;;;;;;14.51;59.69;99486.97;4430851;32;34597;-85
2023/04/18 06:46:50;;;;;;;0.50;0.50;;;;;;;14.87;60.09;99488.47;4436346;32;32553;-83
2023/04/18 06:49:19;;;;;;;0.50;0.50;;;;;;;14.80;60.55;99495.66;4430277;32;33740;-83
2023/04/18 06:51:54;;;;;;;0.60;0.60;;;;;;;14.24;60.54;99486.12;4444577;32;33550;-83
2023/04/18 06:54:22;;;;;;;1.08;0.77;;;;;;;14.94;59.40;99484.75;4445688;32;33531;-83
2023/04/18 06:56:52;;;;;;;0.95;0.95;;;;;;;14.69;60.30;99496.03;4451655;32;33955;-83
2023/04/18 06:59:23;;;;;;;0.50;0.50;;;;;;;15.31;59.63;99496.50;4445158;32;34276;-84
2023/04/18 07:01:54;;;;;;;1.23;0.75;;;;;;;15.03;58.87;99497.50;4444879;32;34318;-83
2023/04/18 07:04:23;;;;;;;0.50;0.50;;;;;;;15.17;58.67;99498.75;4445628;32;33628;-83
2023/04/18 07:06:52;;;;;;;0.70;0.70;;;;;;;15.45;58.26;99499.47;4446075;32;33359;-83
2023/04/18 07:09:21;;;;;;;1.48;0.95;;;;;;;15.33;57.24;99500.78;4439053;32;34742;-85
2023/04/18 07:11:51;;;;;;;0.75;0.60;;;;;;;15.53;57.57;99505.28;4443301;32;34169;-85
2023/04/18 07:14:23;;;;;;;0.50;0.50;;;;;;;15.55;57.85;99505.22;4444640;32;33367;-83
2023/04/18 07:16:52;;;;;;;0.77;0.65;;;;;;;15.85;55.79;99503.28;4434905;32;33519;-85
2023/04/18 07:19:21;;;;;;;0.40;0.40;;;;;;;16.04;54.70;99503.41;4433526;32;33009;-84
2023/04/18 07:21:50;;;;;;;0.50;0.50;;;;;;;15.97;56.02;99501.94;4447713;32;33737;-83
2023/04/18 07:24:19;;;;;;;0.40;0.40;;;;;;;16.19;55.80;99508.06;4461010;32;33468;-83
2023/04/18 07:26:47;;;;;;;0.62;0.50;;;;;;;15.63;55.63;99500.56;4451978;32;33308;-84
2023/04/18 07:29:18;;;;;;;0.60;0.60;;;;;;;16.46;54.19;99505.25;4445720;32;33259;-85
2023/04/18 07:31:48;;;;;;;0.50;0.50;;;;;;;16.21;55.00;99516.72;4451524;32;32870;-84
2023/04/18 07:34:17;;;;;;;0.50;0.50;;;;;;;15.68;55.62;99510.84;4444821;32;33055;-83
2023/04/18 07:36:46;;;;;;;0.40;0.40;;;;;;;16.08;55.24;99512.84;4437928;32;33342;-83
2023/04/18 07:39:15;;;;;;;0.60;0.60;;;;;;;16.04;55.23;99510.41;4445988;32;34359;-84
2023/04/18 07:41:43;;;;;;;0.40;0.40;;;;;;;15.35;57.11;99519.03;4451104;32;33719;-85
2023/04/18 07:44:12;;;;;;;0.60;0.60;;;;;;;15.83;55.79;99520.78;4445886;32;33711;-84
2023/04/18 07:46:41;;;;;;;0.60;0.60;;;;;;;15.94;54.46;99516.00;4444370;32;33440;-85
2023/04/18 07:49:12;;;;;;;0.60;0.60;;;;;;;15.98;54.94;99519.34;4429930;32;34540;-85
2023/04/18 07:51:44;;;;;;;1.00;0.50;;;;;;;15.79;54.28;99525.28;4430187;32;33317;-83
2023/04/18 07:54:13;;;;;;;0.32;0.32;;;;;;;15.72;54.75;99528.19;4435636;32;34122;-83
2023/04/18 07:56:42;;;;;;;1.00;0.57;;;;;;;16.43;53.69;99531.59;4436655;32;33346;-85
2023/04/18 07:59:11;;;;;;;0.47;0.47;;;;;;;16.03;54.29;99533.12;4429972;32;34484;-84
2023/04/18 08:01:40;;;;;;;0.68;0.68;;;;;;;15.67;55.63;99527.47;4440800;32;33899;-84
2023/04/18 08:04:10;;;;;;;0.50;0.50;;;;;;;15.67;54.23;99530.94;4451318;32;33690;-84
2023/04/18 08:06:41;;;;;;;0.40;0.40;;;;;;;15.62;54.80;99532.84;4445001;32;34015;-85
2023/04/18 08:09:10;;;;;;;4.23;1.70;;;;;;;16.51;53.97;99539.13;4431174;32;32897;-84
2023/04/18 08:11:42;;;;;;;0.62;0.55;;;;;;;16.45;53.40;99534.97;4436668;32;33614;-84
2023/04/18 08:14:10;;;;;;;0.40;0.40;;;;;;;16.52;53.03;99536.44;4444762;32;34310;-83
2023/04/18 08:16:39;;;;;;;0.37;0.37;;;;;;;16.12;53.87;99534.53;4451357;32;33827;-84
2023/04/18 08:19:08;;;;;;;0.47;0.47;;;;;;;16.03;54.86;99534.88;4445489;32;33146;-86
2023/04/18 08:21:38;;;;;;;0.40;0.40;;;;;;;16.38;53.59;99539.62;4445284;32;33254;-84
2023/04/18 08:24:08;;;;;;;1.98;1.87;;;;;;;16.80;53.35;99541.44;4444108;32;33143;-85
2023/04/18 08:26:37;;;;;;;0.40;0.40;;;;;;;16.85;51.78;99538.63;4448011;32;33948;-85
2023/04/18 08:29:06;;;;;;;0.93;0.60;;;;;;;17.31;51.51;99548.94;4444983;32;33468;-85
2023/04/18 08:31:35;;;;;;;0.40;0.40;;;;;;;17.31;50.38;99546.31;4444655;32;34548;-86
2023/04/18 08:34:07;;;;;;;0.40;0.40;;;;;;;17.31;51.36;99547.16;4429983;32;33978;-86
2023/04/18 08:36:35;;;;;;;0.65;0.65;;;;;;;17.20;51.48;99542.41;4435145;32;33265;-84
2023/04/18 08:39:05;;;;;;;0.40;0.40;;;;;;;16.68;52.69;99547.16;4434479;32;33356;-84
2023/04/18 08:41:37;;;;;;;0.50;0.37;;;;;;;17.46;50.14;99554.38;4439701;32;33632;-84
2023/04/18 08:44:06;;;;;;;0.40;0.40;;;;;;;17.99;49.02;99547.66;4445119;32;34147;-86
2023/04/18 08:46:36;;;;;;;0.30;0.30;;;;;;;17.29;50.23;99554.25;4445541;32;33102;-85
2023/04/18 08:49:06;;;;;;;0.93;0.60;;;;;;;17.49;49.96;99550.75;4450264;32;34503;-86
2023/04/18 08:51:35;;;;;;;0.40;0.40;;;;;;;17.10;51.51;99550.72;4436453;32;33195;-84
2023/04/18 08:54:05;;;;;;;0.30;0.30;;;;;;;17.83;47.38;99551.91;4456955;32;33355;-84
2023/04/18 08:56:37;;;;;;;1.45;0.40;;;;;;;17.79;49.10;99548.56;4462464;32;33961;-86
2023/04/18 08:59:05;;;;;;;;;;;;;;;17.63;48.63;99547.53;4468143;32;33624;-84
2023/04/18 09:01:55;;;;;;;0.65;0.65;;;;;;;17.98;49.67;99553.00;4447494;32;35593;-83
2023/04/18 09:04:35;;;;;;;0.32;0.32;;;;;;;17.82;49.22;99565.97;4440776;32;33559;-86
2023/04/18 09:07:05;;;;;;;0.40;0.40;;;;;;;18.05;47.46;99546.53;4430771;32;33180;-85
2023/04/18 09:09:44;;;;;;;0.50;0.50;;;;;;;17.92;47.89;99552.34;4431060;32;33774;-84
2023/04/18 09:12:17;;;;;;;0.37;0.37;;;;;;;18.02;46.30;99547.50;4442142;32;33923;-86
2023/04/18 09:14:47;;;;;;;0.32;0.32;;;;;;;18.24;45.58;99543.91;4452243;32;34064;-87
2023/04/18 09:17:31;;;;;;;0.40;0.40;;;;;;;18.51;45.74;99547.00;4446201;32;33067;-84
2023/04/18 09:20:01;;;;;;;1.35;0.45;;;;;;;18.60;46.85;99543.91;4446671;32;33955;-86
2023/04/18 09:22:44;;;;;;;0.37;0.37;;;;;;;18.42;48.05;99548.28;4446236;32;33651;-86
2023/04/18 09:25:24;;;;;;;0.80;0.80;;;;;;;18.86;44.17;99544.47;4446637;32;34664;-85
2023/04/18 09:27:56;;;;;;;0.50;0.50;;;;;;;19.37;42.99;99545.38;4450888;32;33110;-86
2023/04/18 09:30:38;;;;;;;0.40;0.40;;;;;;;19.00;44.98;99551.66;4446748;32;34756;-85
2023/04/18 09:33:09;;;;;;;0.62;0.43;;;;;;;18.27;46.17;99546.41;4445748;32;33889;-85
2023/04/18 09:35:38;;;;;;;0.40;0.40;;;;;;;18.68;46.08;99549.66;4446034;32;33550;-86
2023/04/18 09:38:08;;;;;;;0.70;0.45;;;;;;;19.13;44.91;99550.94;4446088;32;34226;-85
2023/04/18 09:40:37;;;;;;;0.40;0.40;;;;;;;18.55;45.89;99553.78;4452131;32;33470;-84
2023/04/18 09:43:19;;;;;;;0.60;0.60;;;;;;;17.96;47.29;99554.84;4446675;32;34787;-85
2023/04/18 09:45:48;;;;;;;0.30;0.30;;;;;;;18.97;43.83;99547.41;4446786;32;34321;-84
2023/04/18 09:48:17;;;;;;;0.40;0.40;;;;;;;18.64;45.70;99545.47;4431701;32;32930;-84
2023/04/18 09:50:46;;;;;;;0.30;0.30;;;;;;;18.07;45.24;99557.81;4429713;32;35058;-84
2023/04/18 09:53:19;;;;;;;0.40;0.40;;;;;;;18.26;45.58;99553.41;4441965;32;33251;-84
2023/04/18 09:55:51;;;;;;;0.40;0.40;;;;;;;18.24;45.61;99555.28;4444550;32;34308;-85
2023/04/18 09:58:25;;;;;;;0.55;0.40;;;;;;;17.94;46.14;99549.66;4440558;32;33150;-85
2023/04/18 10:00:54;;;;;;;0.30;0.30;;;;;;;18.68;44.51;99552.28;4432570;32;33148;-84
2023/04/18 10:03:28;;;;;;;0.77;0.50;;;;;;;19.14;42.44;99549.19;4442286;32;34336;-85
2023/04/18 10:05:57;;;;;;;0.45;0.35;;;;;;;19.15;42.07;99543.84;4446808;32;33490;-84
2023/04/18 10:08:26;;;;;;;0.30;0.30;;;;;;;18.58;42.92;99542.28;4438577;32;32870;-85
2023/04/18 10:10:57;;;;;;;0.30;0.30;;;;;;;18.30;45.33;99548.88;4433124;32;33800;-86
2023/04/18 10:13:27;;;;;;;;;;;;;;;18.63;42.79;99543.78;4447111;32;34445;-85
2023/04/18 10:15:56;;;;;;;0.30;0.30;;;;;;;18.84;43.20;99546.31;4450707;32;33255;-86
2023/04/18 10:18:25;;;;;;;0.32;0.32;;;;;;;18.68;43.64;99539.16;4445758;32;32935;-84
2023/04/18 10:21:01;;;;;;;0.40;0.40;;;;;;;18.67;43.15;99542.69;4446047;32;33833;-84
2023/04/18 10:23:38;;;;;;;0.47;0.47;;;;;;;19.26;41.86;99545.09;4441364;32;33975;-85
2023/04/18 10:26:08;;;;;;;0.35;0.35;;;;;;;19.18;41.80;99538.44;4461747;32;33641;-86
2023/04/18 10:28:53;;;;;;;0.35;0.35;;;;;;;19.32;42.01;99545.59;4459410;32;33178;-85
2023/04/18 10:31:23;;;;;;;0.47;0.40;;;;;;;19.05;41.80;99550.50;4446229;32;33343;-85
2023/04/18 10:33:53;;;;;;;0.60;0.60;;;;;;;19.38;41.36;99541.81;4446534;32;35220;-85
2023/04/18 10:36:32;;;;;;;0.30;0.30;;;;;;;19.07;41.54;99540.75;4446530;32;33936;-84
2023/04/18 10:39:03;;;;;;;0.47;0.47;;;;;;;19.44;42.38;99541.50;4435716;32;33802;-84
2023/04/18 10:41:32;;;;;;;0.40;0.40;;;;;;;19.43;42.89;99549.47;4436470;32;33896;-84
2023/04/18 10:44:21;;;;;;;1.08;0.57;;;;;;;19.53;41.51;99546.28;4431419;32;33438;-86
2023/04/18 10:47:23;;;;;;;0.50;0.40;;;;;;;20.28;40.27;99545.81;4430740;32;33213;-86
2023/04/18 10:49:57;;;;;;;0.40;0.40;;;;;;;20.29;40.20;99543.09;4433508;32;33040;-85
2023/04/18 10:52:27;;;;;;;0.30;0.30;;;;;;;20.22;41.34;99537.34;4430651;32;33426;-86
2023/04/18 10:55:08;;;;;;;0.30;0.30;;;;;;;20.01;40.35;99530.63;4438567;32;34077;-84
2023/04/18 10:57:41;;;;;;;0.30;0.30;;;;;;;20.49;39.93;99530.59;4451663;32;34623;-86
2023/04/18 11:00:14;;;;;;;0.40;0.40;;;;;;;19.64;41.40;99531.69;4445972;32;33823;-84
2023/04/18 11:02:51;;;;;;;1.05;0.98;;;;;;;19.81;41.68;99527.28;4445747;32;34297;-85
2023/04/18 11:05:23;;;;;;;0.80;0.57;;;;;;;20.02;41.65;99525.25;4445474;32;33515;-86
2023/04/18 11:07:52;;;;;;;0.30;0.30;;;;;;;19.86;41.82;99523.53;4446009;32;34272;-85
2023/04/18 11:10:22;;;;;;;0.30;0.30;;;;;;;20.06;40.99;99520.69;4451634;32;33413;-86
2023/04/18 11:12:52;;;;;;;0.20;0.20;;;;;;;20.22;41.19;99526.81;4445600;32;34023;-85
2023/04/18 11:15:24;;;;;;;0.30;0.30;;;;;;;20.39;40.00;99527.63;4440698;32;33512;-86
2023/04/18 11:17:58;;;;;;;0.52;0.35;;;;;;;20.30;40.28;99528.16;4430966;32;33998;-84
2023/04/18 11:20:28;;;;;;;1.50;0.57;;;;;;;20.40;40.10;99531.97;4436473;32;33479;-85
2023/04/18 11:22:58;;;;;;;0.37;0.37;;;;;;;20.45;39.96;99528.13;4430249;32;34448;-83
2023/04/18 11:25:28;;;;;;;0.40;0.40;;;;;;;19.93;41.09;99523.09;4440687;32;33999;-86
2023/04/18 11:28:01;;;;;;;0.30;0.30;;;;;;;19.69;41.46;99538.47;4445540;32;34337;-86
2023/04/18 11:30:40;;;;;;;0.30;0.30;;;;;;;19.93;39.86;99536.28;4445648;32;33060;-85
2023/04/18 11:33:10;;;;;;;0.30;0.30;;;;;;;20.33;39.24;99531.47;4451486;32;33386;-85
2023/04/18 11:35:40;;;;;;;0.37;0.37;;;;;;;20.48;38.20;99534.16;4435381;32;34668;-85
2023/04/18 11:38:11;;;;;;;0.40;0.40;;;;;;;19.94;38.67;99542.41;4428960;32;33527;-86
2023/04/18 11:40:47;;;;;;;0.37;0.30;;;;;;;19.11;40.78;99536.19;4429639;32;33797;-84
2023/04/18 11:43:20;;;;;;;1.12;0.60;;;;;;;19.39;40.78;99535.63;4437894;32;35002;-85
2023/04/18 11:45:58;;;;;;;0.30;0.30;;;;;;;19.17;41.07;99534.09;4435232;32;32752;-86
2023/04/18 11:48:34;;;;;;;0.30;0.30;;;;;;;19.41;40.81;99544.28;4429370;32;33628;-85
2023/04/18 11:51:05;;;;;;;0.45;0.45;;;;;;;19.12;41.54;99532.62;4439089;32;33391;-83